Time;durP1;ratioP1;P1;durP2;ratioP2;P2;SDS_P1;SDS_P2;PMS_P1;PMS_P2;Temp;Humidity;BMP_temperature;BMP_pressure;BME280_temperature;BME280_humidity;BME280_pressure;Samples;Min_cycle;Max_cycle;Signal;HPM_P1;HPM_P2
2024/02/06 00:01:49;;;;;;;7.47;2.45;;;;;;;0.36;67.91;96729.66;5008509;28;20064;-45
2024/02/06 00:04:15;;;;;;;5.53;2.22;;;;;;;0.59;67.97;96768.72;4974925;28;20103;-43
2024/02/06 00:06:41;;;;;;;8.32;2.13;;;;;;;0.60;68.16;96767.84;5005646;28;20168;-43
2024/02/06 00:09:08;;;;;;;5.97;2.83;;;;;;;0.52;68.01;96769.91;4990297;28;20472;-47
2024/02/06 00:11:34;;;;;;;7.50;2.08;;;;;;;0.47;68.02;96767.53;5001972;28;20042;-44
2024/02/06 00:14:01;;;;;;;4.82;2.20;;;;;;;0.55;68.10;96772.31;5007630;28;20775;-43
2024/02/06 00:16:27;;;;;;;3.95;1.70;;;;;;;0.62;68.01;96773.72;5008669;28;20156;-43
2024/02/06 00:18:53;;;;;;;7.00;2.10;;;;;;;0.59;67.91;96781.50;4975001;28;20076;-46
2024/02/06 00:21:19;;;;;;;5.57;2.25;;;;;;;0.42;67.88;96744.69;5006396;28;20502;-44
2024/02/06 00:23:45;;;;;;;7.47;1.90;;;;;;;0.49;68.18;96749.56;5007512;28;20085;-45
2024/02/06 00:26:11;;;;;;;5.68;2.00;;;;;;;0.64;67.76;96782.16;5007216;28;20054;-44
2024/02/06 00:28:37;;;;;;;6.40;2.45;;;;;;;0.64;68.35;96782.97;5007149;28;20037;-49
2024/02/06 00:31:03;;;;;;;4.13;1.90;;;;;;;0.70;67.72;96787.84;4996796;28;20050;-46
2024/02/06 00:33:29;;;;;;;6.38;2.00;;;;;;;0.46;67.94;96755.63;4955376;28;20034;-45
2024/02/06 00:35:55;;;;;;;9.43;2.20;;;;;;;0.69;68.13;96796.41;5005075;28;20044;-44
2024/02/06 00:38:21;;;;;;;6.70;2.35;;;;;;;0.70;67.82;96794.69;5008185;28;20133;-46
2024/02/06 00:40:46;;;;;;;4.20;1.70;;;;;;;0.53;67.97;96758.75;4989278;28;20136;-43
2024/02/06 00:43:12;;;;;;;8.40;2.13;;;;;;;0.66;67.76;96795.69;5006256;28;20064;-44
2024/02/06 00:45:38;;;;;;;3.92;1.63;;;;;;;0.49;68.05;96798.94;4995675;28;20486;-44
2024/02/06 00:48:05;;;;;;;4.55;1.83;;;;;;;0.47;68.34;96795.63;4976294;28;20049;-44
2024/02/06 00:50:31;;;;;;;6.15;1.92;;;;;;;0.52;68.16;96801.41;4984276;28;20152;-45
2024/02/06 00:52:57;;;;;;;5.70;2.05;;;;;;;0.45;68.40;96787.19;5008426;28;20107;-44
2024/02/06 00:55:22;;;;;;;6.53;2.00;;;;;;;0.59;67.98;96807.91;5008072;28;20132;-45
2024/02/06 00:57:49;;;;;;;3.55;1.70;;;;;;;0.61;67.86;96813.78;4973824;28;20053;-42
2024/02/06 01:00:15;;;;;;;8.50;3.33;;;;;;;0.59;68.31;96818.13;4987058;28;20042;-43
2024/02/06 01:02:41;;;;;;;6.28;1.67;;;;;;;0.40;67.78;96784.00;4987477;28;20116;-43
2024/02/06 01:05:07;;;;;;;3.40;1.73;;;;;;;0.62;68.32;96822.28;4994205;28;20101;-44
2024/02/06 01:07:33;;;;;;;6.75;2.60;;;;;;;0.57;68.23;96817.38;5006313;28;20057;-44
2024/02/06 01:09:59;;;;;;;5.65;2.03;;;;;;;0.64;68.42;96816.22;4969465;28;20043;-44
2024/02/06 01:12:25;;;;;;;7.25;2.50;;;;;;;0.68;68.13;96812.63;4986719;28;20045;-43
2024/02/06 01:14:51;;;;;;;3.15;1.38;;;;;;;0.46;67.81;96785.47;4986694;28;20038;-45
2024/02/06 01:17:18;;;;;;;4.70;2.20;;;;;;;0.42;68.04;96788.13;4970911;28;20533;-44
2024/02/06 01:19:44;;;;;;;12.13;2.90;;;;;;;0.59;68.01;96818.13;4998777;28;20041;-44
2024/02/06 01:22:10;;;;;;;6.15;2.22;;;;;;;0.64;68.19;96830.72;5006468;28;20038;-45
2024/02/06 01:24:37;;;;;;;6.78;2.20;;;;;;;0.70;67.92;96835.56;4974376;28;20517;-44
2024/02/06 01:27:03;;;;;;;5.82;1.90;;;;;;;0.72;68.06;96829.53;5006541;28;20069;-45
2024/02/06 01:29:29;;;;;;;8.13;3.47;;;;;;;0.54;67.92;96801.31;5004837;28;20133;-43
2024/02/06 01:31:56;;;;;;;6.43;2.50;;;;;;;0.73;67.47;96831.16;4988848;28;20046;-44
2024/02/06 01:34:22;;;;;;;10.60;2.60;;;;;;;0.71;67.70;96832.97;4988549;28;20426;-43
2024/02/06 01:36:48;;;;;;;6.10;1.67;;;;;;;0.65;67.58;96835.78;4961933;28;20065;-42
2024/02/06 01:39:14;;;;;;;3.20;2.05;;;;;;;0.61;67.55;96839.34;5006074;28;20180;-44
2024/02/06 01:41:41;;;;;;;7.68;2.90;;;;;;;0.62;67.52;96843.56;5007423;28;20042;-44
2024/02/06 01:44:07;;;;;;;4.57;1.90;;;;;;;0.53;67.87;96836.25;5005969;28;20208;-44
2024/02/06 01:46:33;;;;;;;6.05;1.83;;;;;;;0.56;67.88;96837.88;5000948;28;20538;-46
2024/02/06 01:49:01;;;;;;;5.40;1.92;;;;;;;0.57;67.73;96847.22;4971303;28;20051;-44
2024/02/06 01:51:29;;;;;;;7.28;1.77;;;;;;;0.42;67.73;96834.13;4990350;28;20045;-44
2024/02/06 01:53:56;;;;;;;6.45;2.40;;;;;;;0.44;67.73;96849.41;4989548;28;20052;-43
2024/02/06 01:56:23;;;;;;;7.47;2.60;;;;;;;0.49;67.75;96850.06;5006735;28;20045;-44
2024/02/06 01:58:49;;;;;;;6.13;2.08;;;;;;;0.49;67.76;96856.88;5005900;28;20509;-44
2024/02/06 02:01:16;;;;;;;5.07;2.70;;;;;;;0.50;67.68;96856.00;4988668;28;20052;-43
2024/02/06 02:03:43;;;;;;;6.00;2.50;;;;;;;0.50;67.78;96861.94;5005798;28;20124;-44
2024/02/06 02:06:09;;;;;;;5.50;1.42;;;;;;;0.18;67.62;96821.50;4984926;28;20038;-44
2024/02/06 02:08:35;;;;;;;7.03;2.67;;;;;;;0.18;67.76;96830.00;4956874;28;20050;-43
2024/02/06 02:11:04;;;;;;;3.78;1.88;;;;;;;0.33;67.88;96862.59;5004952;28;20042;-49
2024/02/06 02:13:30;;;;;;;6.75;3.03;;;;;;;0.31;68.35;96864.41;5006410;28;20034;-44
2024/02/06 02:16:00;;;;;;;5.70;1.92;;;;;;;0.28;68.56;96864.50;4984567;28;20050;-44
2024/02/06 02:18:33;;;;;;;;;;;;;;;0.32;67.94;96867.75;4998955;28;20060;-45
2024/02/06 02:20:59;;;;;;;6.03;2.17;;;;;;;0.31;68.27;96876.34;4985314;28;19918;-44
2024/02/06 02:23:26;;;;;;;1.98;0.90;;;;;;;0.24;68.50;96874.91;4969391;28;20049;-42
2024/02/06 02:25:52;;;;;;;2.00;1.10;;;;;;;0.08;68.58;96887.41;4987382;28;20048;-43
2024/02/06 02:28:19;;;;;;;4.20;1.98;;;;;;;0.04;68.88;96880.78;4988719;28;20044;-44
2024/02/06 02:30:45;;;;;;;5.28;1.80;;;;;;;0.12;68.84;96870.25;4996949;28;20511;-42
2024/02/06 02:33:11;;;;;;;9.70;1.85;;;;;;;-0.03;68.65;96841.88;4987427;28;20050;-43
2024/02/06 02:35:37;;;;;;;5.85;1.67;;;;;;;0.29;68.17;96883.22;4937033;28;20046;-44
2024/02/06 02:38:04;;;;;;;3.75;1.55;;;;;;;0.21;68.35;96873.28;4985519;28;20145;-43
2024/02/06 02:40:30;;;;;;;3.10;1.00;;;;;;;0.19;68.43;96887.84;4986652;28;20050;-42
2024/02/06 02:42:58;;;;;;;5.72;1.20;;;;;;;0.07;68.52;96887.47;4969158;28;20034;-44
2024/02/06 02:45:24;;;;;;;4.25;1.25;;;;;;;0.09;68.77;96883.16;4963378;28;20042;-43
2024/02/06 02:47:50;;;;;;;2.70;1.40;;;;;;;-0.09;68.80;96887.22;5006175;28;20627;-45
2024/02/06 02:50:16;;;;;;;5.78;1.85;;;;;;;-0.06;69.08;96898.16;5005762;28;20044;-44
2024/02/06 02:52:43;;;;;;;5.75;1.85;;;;;;;0.00;68.87;96892.00;4988296;28;20572;-45
2024/02/06 02:55:09;;;;;;;2.00;1.20;;;;;;;-0.04;69.20;96900.63;5005304;28;20625;-44
2024/02/06 02:57:35;;;;;;;3.75;1.65;;;;;;;-0.05;69.29;96894.69;4988251;28;20058;-42
2024/02/06 03:00:01;;;;;;;3.15;1.35;;;;;;;-0.02;69.55;96901.41;4997607;28;20581;-44
2024/02/06 03:02:30;;;;;;;4.32;1.23;;;;;;;-0.02;69.41;96891.22;4969551;28;20598;-43
2024/02/06 03:04:56;;;;;;;4.30;1.50;;;;;;;0.02;69.37;96897.84;4968327;28;20065;-41
2024/02/06 03:07:22;;;;;;;4.28;2.20;;;;;;;-0.13;69.49;96885.66;4985577;28;20050;-43
2024/02/06 03:09:48;;;;;;;6.35;2.47;;;;;;;-0.23;69.24;96869.84;4937291;28;20537;-43
2024/02/06 03:12:14;;;;;;;6.97;1.60;;;;;;;-0.08;69.89;96897.38;4985517;28;20544;-43
2024/02/06 03:14:40;;;;;;;8.80;2.28;;;;;;;0.02;69.68;96900.41;4970244;28;20124;-45
2024/02/06 03:17:06;;;;;;;4.28;1.13;;;;;;;0.09;69.33;96903.59;4967051;28;20542;-43
2024/02/06 03:19:32;;;;;;;4.43;1.73;;;;;;;0.10;69.61;96892.47;5003210;28;20145;-44
2024/02/06 03:21:58;;;;;;;2.63;1.30;;;;;;;0.07;69.21;96898.53;4987670;28;20056;-43
2024/02/06 03:24:27;;;;;;;4.28;2.00;;;;;;;-0.12;69.69;96902.66;5004040;28;20038;-45
2024/02/06 03:26:53;;;;;;;5.90;1.80;;;;;;;0.06;70.15;96906.22;4967829;28;20049;-43
2024/02/06 03:29:19;;;;;;;5.72;2.38;;;;;;;0.13;70.16;96900.00;4992625;28;20048;-41
2024/02/06 03:31:45;;;;;;;5.72;2.03;;;;;;;0.21;69.45;96898.81;4972959;28;20038;-47
2024/02/06 03:34:11;;;;;;;4.18;1.90;;;;;;;0.24;69.66;96905.56;4993218;28;20045;-43
2024/02/06 03:36:43;;;;;;;4.45;2.03;;;;;;;0.06;69.36;96866.22;5002507;28;20441;-42
2024/02/06 03:39:12;;;;;;;5.60;2.47;;;;;;;0.23;69.38;96880.91;5003620;28;20088;-43
2024/02/06 03:41:38;;;;;;;4.32;2.00;;;;;;;0.41;68.98;96898.94;4987407;28;20038;-46
2024/02/06 03:44:05;;;;;;;3.88;1.50;;;;;;;0.11;68.93;96858.38;5003798;28;20532;-46
2024/02/06 03:46:31;;;;;;;7.78;2.33;;;;;;;0.41;68.91;96904.03;4988143;28;20128;-44
2024/02/06 03:48:57;;;;;;;4.85;2.17;;;;;;;0.46;69.28;96900.47;5005300;28;20137;-45
2024/02/06 03:51:23;;;;;;;4.32;2.30;;;;;;;0.43;69.18;96909.91;4994321;28;20046;-45
2024/02/06 03:53:49;;;;;;;8.82;2.55;;;;;;;0.26;68.82;96888.47;4968368;28;20042;-44
2024/02/06 03:56:18;;;;;;;4.72;2.30;;;;;;;0.45;69.31;96906.44;5002862;28;20041;-42
2024/02/06 03:58:45;;;;;;;8.32;2.95;;;;;;;0.40;69.21;96891.31;4987777;28;20050;-45
2024/02/06 04:01:11;;;;;;;5.97;2.60;;;;;;;0.43;69.11;96898.84;4971889;28;20049;-46
2024/02/06 04:03:37;;;;;;;9.93;2.90;;;;;;;0.61;68.82;96926.25;4994094;28;20050;-42
2024/02/06 04:06:03;;;;;;;7.95;2.60;;;;;;;0.43;68.69;96922.69;5006953;28;20057;-45
2024/02/06 04:08:29;;;;;;;6.28;2.50;;;;;;;0.47;69.03;96928.53;5000728;28;20367;-43
2024/02/06 04:10:56;;;;;;;4.53;2.00;;;;;;;0.42;69.29;96921.00;5000004;28;20593;-45
2024/02/06 04:13:22;;;;;;;4.45;1.92;;;;;;;0.28;69.26;96896.88;4988754;28;20145;-47
2024/02/06 04:15:48;;;;;;;9.30;2.10;;;;;;;0.54;69.35;96927.38;4982894;28;20480;-44
2024/02/06 04:18:14;;;;;;;5.35;1.73;;;;;;;0.26;68.95;96930.13;5000394;28;20045;-44
2024/02/06 04:20:40;;;;;;;3.70;1.80;;;;;;;0.38;69.47;96939.91;4994742;28;20037;-46
2024/02/06 04:23:06;;;;;;;4.15;1.90;;;;;;;0.50;69.50;96936.06;4999973;28;20547;-45
2024/02/06 04:25:32;;;;;;;3.55;1.60;;;;;;;0.57;69.18;96937.50;4976256;28;20113;-45
2024/02/06 04:27:58;;;;;;;4.97;1.98;;;;;;;0.64;69.17;96927.84;4980741;28;20038;-45
2024/02/06 04:30:24;;;;;;;5.00;2.35;;;;;;;0.59;69.18;96901.63;4998625;28;20475;-48
2024/02/06 04:32:53;;;;;;;6.15;2.35;;;;;;;0.81;68.88;96933.13;4990506;28;20104;-45
2024/02/06 04:35:19;;;;;;;3.65;1.88;;;;;;;0.91;68.78;96924.19;5001770;28;20054;-46
2024/02/06 04:37:45;;;;;;;5.20;2.60;;;;;;;0.80;68.39;96899.06;4979562;28;20093;-45
2024/02/06 04:40:11;;;;;;;7.10;3.38;;;;;;;0.79;68.42;96907.63;4978759;28;20539;-45
2024/02/06 04:42:37;;;;;;;5.72;2.35;;;;;;;1.03;68.19;96945.91;4979705;28;20041;-43
2024/02/06 04:45:04;;;;;;;6.30;2.13;;;;;;;0.90;68.21;96916.56;4994432;28;20046;-48
2024/02/06 04:47:34;;;;;;;5.70;1.97;;;;;;;0.99;68.15;96952.03;4996417;28;20046;-43
2024/02/06 04:50:00;;;;;;;5.90;2.87;;;;;;;0.55;68.09;96884.75;5003099;28;20874;-46
2024/02/06 04:52:26;;;;;;;4.90;1.20;;;;;;;0.63;67.76;96911.66;4982055;28;20038;-47
2024/02/06 04:54:52;;;;;;;5.47;1.63;;;;;;;0.59;68.34;96943.34;4979352;28;20092;-45
2024/02/06 04:57:18;;;;;;;3.45;1.70;;;;;;;0.45;68.40;96912.41;4996609;28;20044;-43
2024/02/06 04:59:44;;;;;;;6.75;1.60;;;;;;;0.74;68.31;96950.44;4994102;28;20125;-44
2024/02/06 05:02:10;;;;;;;4.22;1.98;;;;;;;0.82;68.40;96947.59;4981352;28;20537;-44
2024/02/06 05:04:36;;;;;;;3.65;1.85;;;;;;;0.57;68.15;96922.16;4994422;28;20064;-44
2024/02/06 05:07:02;;;;;;;5.40;2.38;;;;;;;0.69;68.29;96947.22;4992203;28;20050;-44
2024/02/06 05:09:28;;;;;;;3.85;1.90;;;;;;;0.48;68.38;96902.03;4993561;28;20030;-47
2024/02/06 05:11:54;;;;;;;5.43;1.92;;;;;;;0.65;68.86;96950.78;4965046;28;20356;-47
2024/02/06 05:14:20;;;;;;;3.50;2.00;;;;;;;0.26;68.98;96896.13;4979441;28;20109;-49
2024/02/06 05:16:46;;;;;;;8.98;1.88;;;;;;;0.49;69.24;96948.88;5000519;28;20050;-46
2024/02/06 05:19:15;;;;;;;2.22;1.45;;;;;;;0.17;69.64;96910.06;4979660;28;20119;-46
2024/02/06 05:21:41;;;;;;;8.70;2.35;;;;;;;0.50;70.45;96951.38;4965854;28;20553;-45
2024/02/06 05:24:08;;;;;;;7.68;2.72;;;;;;;0.63;70.57;96938.97;4998587;28;20041;-45
2024/02/06 05:26:34;;;;;;;4.53;1.63;;;;;;;0.75;70.60;96946.16;4990937;28;20056;-44
2024/02/06 05:29:00;;;;;;;6.75;2.22;;;;;;;0.76;70.28;96958.03;4991036;28;20034;-47
2024/02/06 05:31:26;;;;;;;6.00;2.40;;;;;;;0.81;70.60;96956.16;4989058;28;20038;-45
2024/02/06 05:33:52;;;;;;;7.53;2.80;;;;;;;0.81;70.43;96951.03;4993636;28;20052;-43
2024/02/06 05:36:18;;;;;;;6.68;2.42;;;;;;;0.85;70.58;96950.00;4992768;28;20359;-44
2024/02/06 05:38:44;;;;;;;5.65;1.98;;;;;;;0.93;70.89;96955.66;4999626;28;20046;-47
2024/02/06 05:41:12;;;;;;;9.48;3.38;;;;;;;1.01;70.77;96952.78;4998432;28;20511;-45
2024/02/06 05:43:39;;;;;;;10.70;3.53;;;;;;;0.88;70.70;96929.44;5002901;28;20056;-49
2024/02/06 05:46:05;;;;;;;8.30;3.05;;;;;;;0.88;70.49;96914.09;5005727;28;20157;-50
2024/02/06 05:48:31;;;;;;;6.47;2.53;;;;;;;0.81;70.53;96907.56;5007196;28;20087;-46
2024/02/06 05:50:59;;;;;;;4.05;2.50;;;;;;;1.00;70.69;96944.28;4985440;28;20082;-47
2024/02/06 05:53:25;;;;;;;7.07;3.10;;;;;;;0.81;71.07;96949.31;4988402;28;20149;-46
2024/02/06 05:55:51;;;;;;;8.18;2.63;;;;;;;0.76;71.24;96955.50;4998880;28;20042;-43
2024/02/06 05:58:17;;;;;;;10.68;3.83;;;;;;;0.62;71.13;96947.53;4989511;28;20592;-46
2024/02/06 06:00:43;;;;;;;4.85;2.22;;;;;;;0.75;71.79;96951.25;5006817;28;20120;-45
2024/02/06 06:03:09;;;;;;;8.48;2.75;;;;;;;0.74;71.66;96955.53;4998271;28;20057;-44
2024/02/06 06:05:35;;;;;;;6.38;3.50;;;;;;;0.87;71.44;96949.97;4969082;28;20140;-48
2024/02/06 06:08:01;;;;;;;5.60;1.75;;;;;;;0.95;71.23;96948.75;4969982;28;20061;-51
2024/02/06 06:10:27;;;;;;;4.00;2.45;;;;;;;0.75;71.12;96954.66;4985654;28;20384;-44
2024/02/06 06:12:52;;;;;;;3.35;1.90;;;;;;;0.72;71.95;96949.69;4986966;28;20132;-45
2024/02/06 06:15:18;;;;;;;5.60;2.10;;;;;;;0.60;71.79;96954.41;4975933;28;20422;-45
2024/02/06 06:17:44;;;;;;;6.85;1.73;;;;;;;0.41;72.81;96918.53;5003318;28;20564;-42
2024/02/06 06:20:11;;;;;;;6.53;3.13;;;;;;;0.46;72.80;96920.91;4994231;28;20062;-43
2024/02/06 06:22:37;;;;;;;6.35;3.10;;;;;;;0.56;72.68;96925.59;4975331;28;20042;-44
2024/02/06 06:25:04;;;;;;;8.80;3.25;;;;;;;0.69;72.55;96949.78;4995061;28;20045;-44
2024/02/06 06:27:30;;;;;;;7.00;2.63;;;;;;;0.89;72.75;96958.41;4982308;28;20060;-49
2024/02/06 06:29:56;;;;;;;7.35;3.33;;;;;;;1.05;72.64;96951.75;4991979;28;20073;-45
2024/02/06 06:32:22;;;;;;;4.85;2.20;;;;;;;1.05;72.00;96950.03;4998751;28;20500;-44
2024/02/06 06:34:48;;;;;;;6.25;2.70;;;;;;;1.05;72.22;96964.56;4996791;28;20050;-44
2024/02/06 06:37:18;;;;;;;5.05;2.30;;;;;;;1.12;72.16;96959.16;4992682;28;20126;-46
2024/02/06 06:39:50;;;;;;;7.68;3.03;;;;;;;0.71;72.00;96908.81;4997712;28;20046;-44
2024/02/06 06:42:16;;;;;;;5.63;2.25;;;;;;;1.02;72.01;96941.66;4977420;28;20522;-45
2024/02/06 06:44:42;;;;;;;8.57;2.53;;;;;;;1.00;71.43;96943.44;4974107;28;20042;-46
2024/02/06 06:49:59;;;;;;;5.40;1.70;;;;;;;0.90;71.70;96926.81;4990471;28;20080;-46
2024/02/06 06:52:25;;;;;;;4.35;1.60;;;;;;;1.26;71.81;96972.19;4960606;28;20066;-47
2024/02/06 06:54:52;;;;;;;4.15;1.70;;;;;;;1.46;71.47;96973.13;4976192;28;20528;-47
2024/02/06 06:57:17;;;;;;;5.63;1.80;;;;;;;1.41;71.47;96937.50;4996334;28;20497;-46
2024/02/06 06:59:43;;;;;;;3.75;1.85;;;;;;;1.64;71.29;96980.84;4992398;28;20042;-49
2024/02/06 07:02:09;;;;;;;7.00;2.47;;;;;;;1.75;71.69;96977.84;5000478;28;20072;-47
2024/02/06 07:04:36;;;;;;;7.70;2.80;;;;;;;1.61;71.21;96982.72;4999473;28;20082;-48
2024/02/06 07:07:03;;;;;;;7.03;2.53;;;;;;;1.76;71.24;96988.91;5004595;28;20065;-49
2024/02/06 07:09:29;;;;;;;7.90;2.67;;;;;;;1.62;70.92;96971.59;5005964;28;20052;-51
2024/02/06 07:11:56;;;;;;;5.32;2.38;;;;;;;1.74;71.34;96983.03;5005558;28;20092;-48
2024/02/06 07:14:22;;;;;;;6.28;2.35;;;;;;;1.75;71.72;96988.09;5002539;28;20540;-49
2024/02/06 07:16:49;;;;;;;5.53;2.13;;;;;;;1.87;71.75;96986.72;4986166;28;20121;-47
2024/02/06 07:19:15;;;;;;;6.97;1.80;;;;;;;1.83;71.22;96990.34;4990422;28;20505;-46
2024/02/06 07:21:40;;;;;;;6.03;2.20;;;;;;;1.44;71.78;96962.09;5006032;28;20041;-51
2024/02/06 07:24:06;;;;;;;7.90;3.47;;;;;;;1.57;71.85;96978.63;5005886;28;20061;-45
2024/02/06 07:26:32;;;;;;;4.60;2.40;;;;;;;1.58;72.22;96964.91;5005897;28;20042;-49
2024/02/06 07:28:58;;;;;;;3.15;1.90;;;;;;;1.75;71.66;96989.81;5004175;28;20049;-47
2024/02/06 07:31:24;;;;;;;4.18;1.70;;;;;;;1.66;71.80;96985.91;4996092;28;20532;-48
2024/02/06 07:33:51;;;;;;;4.47;1.73;;;;;;;1.24;71.54;96929.66;4980995;28;20068;-45
2024/02/06 07:36:17;;;;;;;4.28;1.92;;;;;;;1.56;71.64;96957.31;4979323;28;20077;-48
2024/02/06 07:38:43;;;;;;;2.47;1.67;;;;;;;1.26;70.58;96922.75;4989729;28;20046;-45
2024/02/06 07:41:09;;;;;;;3.35;1.10;;;;;;;1.24;69.91;96965.50;5004666;28;20890;-45
2024/02/06 07:43:37;;;;;;;5.18;1.52;;;;;;;1.15;70.38;96953.09;5009189;28;20126;-49
2024/02/06 07:46:07;;;;;;;2.20;1.43;;;;;;;1.37;70.15;96989.66;4983043;28;20061;-46
2024/02/06 07:48:33;;;;;;;5.72;2.90;;;;;;;1.49;70.10;96990.91;4994633;28;20049;-45
2024/02/06 07:50:59;;;;;;;6.82;2.65;;;;;;;1.75;69.75;96998.31;4981988;28;20073;-46
2024/02/06 07:53:26;;;;;;;3.35;1.20;;;;;;;1.75;69.01;96989.81;4998309;28;20129;-47
2024/02/06 07:55:51;;;;;;;5.30;1.75;;;;;;;1.61;68.72;96996.34;4980563;28;20053;-46
2024/02/06 07:58:17;;;;;;;4.40;2.00;;;;;;;1.62;69.15;97008.22;4994393;28;20399;-46
2024/02/06 08:00:44;;;;;;;3.22;1.40;;;;;;;1.32;69.01;96967.72;4989487;28;20103;-45
2024/02/06 08:03:11;;;;;;;2.30;1.13;;;;;;;1.55;69.00;97018.81;5000862;28;20073;-46
2024/02/06 08:05:37;;;;;;;3.10;1.02;;;;;;;1.28;68.85;97020.75;4993791;28;20089;-48
2024/02/06 08:08:04;;;;;;;2.08;0.80;;;;;;;1.22;69.30;97008.22;5003658;28;20125;-44
2024/02/06 08:10:30;;;;;;;3.75;1.23;;;;;;;1.24;69.46;97020.06;4993161;28;20435;-47
2024/02/06 08:12:57;;;;;;;2.55;0.90;;;;;;;1.39;69.64;97030.56;4982056;28;20261;-46
2024/02/06 08:15:23;;;;;;;2.40;1.30;;;;;;;1.35;69.77;96999.16;5001865;28;20049;-45
2024/02/06 08:17:50;;;;;;;3.22;1.20;;;;;;;1.62;69.23;97030.47;4996504;28;20037;-48
2024/02/06 08:20:19;;;;;;;1.92;1.10;;;;;;;1.62;69.12;97035.59;4982533;28;20050;-46
2024/02/06 08:22:47;;;;;;;2.72;1.42;;;;;;;1.73;69.18;97030.03;5000077;28;20132;-46
2024/02/06 08:25:15;;;;;;;1.45;1.35;;;;;;;1.82;68.77;97025.34;5007166;28;20454;-47
2024/02/06 08:27:41;;;;;;;1.92;1.00;;;;;;;1.69;68.53;97001.97;5004765;28;20053;-48
2024/02/06 08:30:09;;;;;;;3.47;0.98;;;;;;;2.01;68.02;96997.22;5002905;28;20172;-47
2024/02/06 08:32:35;;;;;;;2.20;1.08;;;;;;;2.44;67.38;97032.03;4980111;28;20494;-48
2024/02/06 08:35:01;;;;;;;3.25;1.20;;;;;;;2.72;66.84;97024.75;4986158;28;20069;-48
2024/02/06 08:37:29;;;;;;;5.03;1.30;;;;;;;2.70;66.27;97006.06;5008426;28;20041;-47
2024/02/06 08:39:55;;;;;;;3.35;1.40;;;;;;;2.88;65.36;97033.41;5001689;28;20411;-46
2024/02/06 08:42:21;;;;;;;2.05;1.00;;;;;;;2.79;65.13;97035.56;4985595;28;20060;-46
2024/02/06 08:44:47;;;;;;;3.83;1.23;;;;;;;2.70;65.02;97033.44;5008532;28;20041;-46
2024/02/06 08:47:13;;;;;;;2.75;1.02;;;;;;;2.54;65.05;97036.69;5004327;28;20064;-47
2024/02/06 08:49:39;;;;;;;2.42;1.20;;;;;;;2.58;65.05;97042.50;4996957;28;20046;-45
2024/02/06 08:52:06;;;;;;;2.03;1.10;;;;;;;2.62;64.70;97045.78;4980167;28;20081;-48
2024/02/06 08:54:32;;;;;;;1.58;0.85;;;;;;;2.19;64.50;97008.41;4995330;28;20137;-54
2024/02/06 08:56:58;;;;;;;3.00;1.08;;;;;;;2.19;64.43;97045.13;4980984;28;20053;-43
2024/02/06 08:59:24;;;;;;;1.95;0.90;;;;;;;2.21;64.78;97042.47;5002247;28;20173;-43
2024/02/06 09:01:50;;;;;;;4.20;1.15;;;;;;;2.26;65.06;97048.22;4979494;28;20042;-43
2024/02/06 09:04:18;;;;;;;3.83;1.33;;;;;;;2.35;65.07;97040.16;4993452;28;20112;-43
2024/02/06 09:06:44;;;;;;;2.20;0.88;;;;;;;2.55;65.21;97047.78;5002439;28;20152;-43
2024/02/06 09:09:12;;;;;;;1.88;0.80;;;;;;;2.43;65.40;97023.53;4990374;28;20165;-44
2024/02/06 09:11:40;;;;;;;5.57;0.93;;;;;;;2.38;64.99;97047.69;5002214;28;20141;-43
2024/02/06 09:14:06;;;;;;;1.48;0.82;;;;;;;2.32;65.18;97053.91;4977238;28;20133;-42
2024/02/06 09:16:33;;;;;;;2.97;0.70;;;;;;;2.26;65.88;97055.91;4979837;28;20627;-43
2024/02/06 09:18:59;;;;;;;1.17;0.70;;;;;;;2.12;65.38;97031.72;4995876;28;20041;-43
2024/02/06 09:21:25;;;;;;;2.47;1.00;;;;;;;2.13;65.00;97064.16;4976399;28;20100;-42
2024/02/06 09:23:52;;;;;;;2.13;0.90;;;;;;;2.29;65.62;97064.31;5000116;28;20073;-44
2024/02/06 09:26:18;;;;;;;1.67;0.70;;;;;;;1.99;65.50;96999.03;5001900;28;20057;-45
2024/02/06 09:28:45;;;;;;;4.75;0.98;;;;;;;2.07;65.64;97063.56;4996352;28;20053;-49
2024/02/06 09:31:14;;;;;;;2.78;1.00;;;;;;;2.01;65.64;97069.78;4999448;28;20452;-46
2024/02/06 09:33:40;;;;;;;2.00;0.98;;;;;;;2.00;65.68;97070.66;4970752;28;20124;-46
2024/02/06 09:36:07;;;;;;;2.83;1.58;;;;;;;2.23;65.68;97071.44;4986630;28;20060;-49
2024/02/06 09:38:33;;;;;;;2.78;1.13;;;;;;;2.35;64.81;97068.34;4974109;28;20068;-43
2024/02/06 09:41:00;;;;;;;6.90;1.30;;;;;;;2.43;64.47;97074.78;4980683;28;20046;-44
2024/02/06 09:43:27;;;;;;;3.38;1.17;;;;;;;2.39;64.41;97057.06;4995058;28;20125;-43
2024/02/06 09:45:53;;;;;;;1.00;0.85;;;;;;;2.37;63.57;97085.31;4994709;28;20423;-43
2024/02/06 09:48:24;;;;;;;2.63;0.90;;;;;;;2.23;63.12;97092.75;4976719;28;20038;-43
2024/02/06 09:50:52;;;;;;;4.85;1.63;;;;;;;2.21;63.17;97093.72;4961952;28;20043;-43
2024/02/06 09:53:18;;;;;;;1.27;0.98;;;;;;;1.99;62.73;97091.25;4985980;28;20495;-42
2024/02/06 09:55:45;;;;;;;2.13;0.93;;;;;;;1.97;63.03;97095.59;4987581;28;20141;-43
2024/02/06 09:58:11;;;;;;;2.22;1.00;;;;;;;2.04;62.70;97102.94;4970431;28;20073;-43
2024/02/06 10:00:38;;;;;;;1.52;0.73;;;;;;;1.85;62.93;97099.47;4986490;28;20046;-43
2024/02/06 10:03:08;;;;;;;1.77;0.90;;;;;;;1.79;63.18;97093.78;4953714;28;20066;-42
2024/02/06 10:05:41;;;;;;;3.22;1.00;;;;;;;1.93;63.99;97109.44;4987173;28;20065;-43
2024/02/06 10:08:08;;;;;;;1.00;0.50;;;;;;;1.85;63.21;97114.00;4989323;28;20533;-44
2024/02/06 10:10:35;;;;;;;3.35;0.82;;;;;;;1.34;63.30;97074.25;5005673;28;20145;-44
2024/02/06 10:13:02;;;;;;;1.42;0.65;;;;;;;1.54;63.69;97107.56;5004593;28;20136;-44
2024/02/06 10:15:28;;;;;;;1.73;0.75;;;;;;;1.33;63.68;97082.00;4954123;28;20060;-44
2024/02/06 10:17:55;;;;;;;1.45;0.77;;;;;;;1.70;63.91;97118.88;4995193;28;20042;-44
2024/02/06 10:20:21;;;;;;;3.30;0.70;;;;;;;1.88;63.02;97119.88;4979217;28;20034;-44
2024/02/06 10:22:47;;;;;;;1.42;0.60;;;;;;;2.05;62.03;97104.63;4979544;28;20042;-42
2024/02/06 10:25:14;;;;;;;2.22;0.52;;;;;;;2.16;61.36;97123.81;4995613;28;20084;-44
2024/02/06 10:27:40;;;;;;;1.80;0.50;;;;;;;2.23;60.89;97120.13;4996001;28;20793;-42
2024/02/06 10:30:06;;;;;;;0.98;0.50;;;;;;;2.41;60.39;97122.72;4960839;28;20104;-43
2024/02/06 10:32:34;;;;;;;1.42;0.60;;;;;;;2.58;60.08;97126.28;4995898;28;20096;-44
2024/02/06 10:35:01;;;;;;;0.60;0.50;;;;;;;2.38;59.30;97124.59;4964843;28;20425;-46
2024/02/06 10:37:34;;;;;;;4.20;0.80;;;;;;;2.35;59.58;97104.22;4986319;28;20076;-46
2024/02/06 10:40:04;;;;;;;1.17;0.70;;;;;;;2.46;59.35;97125.91;4995728;28;20057;-44
2024/02/06 10:42:30;;;;;;;2.55;0.60;;;;;;;2.60;59.54;97121.94;4988880;28;20034;-44
2024/02/06 10:44:56;;;;;;;1.52;0.73;;;;;;;2.46;59.08;97097.72;5005553;28;20037;-44
2024/02/06 10:47:23;;;;;;;1.98;0.70;;;;;;;2.63;59.28;97107.25;4957048;28;20037;-44
2024/02/06 10:50:06;;;;;;;1.23;0.90;;;;;;;3.06;58.94;97131.00;5005813;28;20037;-44
2024/02/06 10:52:33;;;;;;;0.98;0.70;;;;;;;2.73;58.74;97105.94;5003500;28;20506;-44
2024/02/06 10:54:59;;;;;;;3.00;0.52;;;;;;;2.52;58.67;97099.19;5001251;28;20049;-48
2024/02/06 10:57:27;;;;;;;1.77;0.60;;;;;;;2.87;58.86;97136.13;4980179;28;20042;-47
2024/02/06 11:00:07;;;;;;;1.20;0.67;;;;;;;2.77;58.68;97129.75;4984085;28;20045;-45
2024/02/06 11:02:34;;;;;;;0.73;0.50;;;;;;;2.89;59.09;97134.31;5000244;28;20041;-42
2024/02/06 11:05:06;;;;;;;1.33;0.60;;;;;;;2.99;59.14;97131.25;4976334;28;20046;-44
2024/02/06 11:08:03;;;;;;;1.35;0.68;;;;;;;3.07;59.73;97132.66;4993228;28;20673;-42
2024/02/06 11:10:51;;;;;;;3.42;0.80;;;;;;;2.57;60.21;97145.97;4992333;28;20148;-44
2024/02/06 11:13:39;;;;;;;0.22;0.22;;;;;;;2.22;60.67;97128.69;4994062;28;20045;-45
2024/02/06 11:16:08;;;;;;;0.52;0.43;;;;;;;2.17;60.28;97144.28;5016764;28;20072;-52
2024/02/06 11:19:33;;;;;;;1.60;0.50;;;;;;;1.96;60.43;97143.44;5003897;28;20057;-50
2024/02/06 11:22:19;;;;;;;0.73;0.47;;;;;;;1.92;60.66;97152.13;4886507;29;20280;-49
2024/02/06 11:24:45;;;;;;;0.93;0.52;;;;;;;1.99;60.38;97150.19;4992662;28;20053;-47
2024/02/06 11:27:12;;;;;;;1.23;0.22;;;;;;;1.70;60.22;97121.44;4970255;28;20092;-47
2024/02/06 11:29:37;;;;;;;1.40;0.60;;;;;;;1.66;60.46;97129.31;4963767;28;20042;-47
2024/02/06 11:32:04;;;;;;;1.55;0.40;;;;;;;1.72;60.57;97123.09;4991012;28;20049;-47
2024/02/06 11:34:30;;;;;;;1.90;0.60;;;;;;;1.79;60.35;97163.75;5001023;28;20124;-51
2024/02/06 11:37:00;;;;;;;3.50;0.90;;;;;;;2.10;60.69;97156.50;4994329;28;20125;-48
2024/02/06 11:39:28;;;;;;;1.70;0.95;;;;;;;2.51;60.10;97177.84;4992954;28;20137;-49
2024/02/06 11:42:01;;;;;;;1.63;0.60;;;;;;;2.53;59.84;97168.34;4992492;28;20120;-48
2024/02/06 11:44:26;;;;;;;1.73;0.65;;;;;;;2.28;59.48;97108.78;4995252;28;20037;-48